createdAt,value
2022-10-08T00:00:36.370Z,0
2022-10-08T00:01:42.545Z,0
2022-10-08T00:02:48.700Z,0
2022-10-08T00:03:54.889Z,0
2022-10-08T00:05:01.044Z,0
2022-10-08T00:06:07.209Z,0
2022-10-08T00:07:13.378Z,0
2022-10-08T00:08:19.566Z,0
2022-10-08T00:09:25.715Z,0
2022-10-08T00:10:31.893Z,0
2022-10-08T00:11:37.099Z,0
2022-10-08T00:12:43.249Z,0
2022-10-08T00:13:49.435Z,0
2022-10-08T00:14:55.575Z,0
2022-10-08T00:16:01.765Z,0
2022-10-08T00:17:07.918Z,0
2022-10-08T00:18:14.105Z,0
2022-10-08T00:19:19.283Z,0
2022-10-08T00:20:24.496Z,0
2022-10-08T00:22:35.976Z,0
2022-10-08T00:23:41.025Z,0
2022-10-08T00:24:47.211Z,0
2022-10-08T00:25:53.375Z,0
2022-10-08T00:26:59.594Z,0
2022-10-08T00:28:05.715Z,0
2022-10-08T00:29:11.885Z,0
2022-10-08T00:30:18.057Z,0
2022-10-08T00:31:24.209Z,0
2022-10-08T00:32:30.384Z,0
2022-10-08T00:33:36.557Z,0
2022-10-08T00:34:42.760Z,0
2022-10-08T00:35:48.899Z,0
2022-10-08T00:36:55.112Z,0
2022-10-08T00:38:00.255Z,0
2022-10-08T00:39:06.452Z,0
2022-10-08T00:40:12.587Z,0
2022-10-08T00:41:18.751Z,0
2022-10-08T00:42:24.971Z,0
2022-10-08T00:43:30.173Z,0
2022-10-08T00:44:35.305Z,0
2022-10-08T00:45:40.519Z,0
2022-10-08T00:46:45.707Z,0
2022-10-08T00:47:50.920Z,0
2022-10-08T00:48:56.067Z,0
2022-10-08T00:50:02.316Z,0
2022-10-08T00:51:08.412Z,0
2022-10-08T00:52:14.589Z,0
2022-10-08T00:53:20.758Z,0
2022-10-08T00:54:26.998Z,0
2022-10-08T00:55:33.081Z,0
2022-10-08T00:56:39.270Z,0
2022-10-08T00:57:45.450Z,0
2022-10-08T00:58:51.660Z,0
2022-10-08T00:59:57.790Z,0
2022-10-08T01:01:03.934Z,0
2022-10-08T01:02:10.100Z,0
2022-10-08T01:03:15.327Z,0
2022-10-08T01:04:21.471Z,0
2022-10-08T01:05:27.691Z,0
2022-10-08T01:06:33.812Z,0
2022-10-08T01:07:39.981Z,0
2022-10-08T01:08:46.151Z,0
2022-10-08T01:09:52.309Z,0
2022-10-08T01:10:57.515Z,0
2022-10-08T01:12:02.694Z,0
2022-10-08T01:13:07.888Z,0
2022-10-08T01:14:13.072Z,0
2022-10-08T01:15:19.230Z,0
2022-10-08T01:16:25.429Z,0
2022-10-08T01:17:31.595Z,0
2022-10-08T01:18:37.746Z,0
2022-10-08T01:19:43.929Z,0
2022-10-08T01:20:50.087Z,0
2022-10-08T01:21:56.254Z,0
2022-10-08T01:23:02.557Z,0
2022-10-08T01:24:08.611Z,0
2022-10-08T01:25:14.794Z,0
2022-10-08T01:26:20.923Z,0
2022-10-08T01:27:27.127Z,0
2022-10-08T01:28:32.298Z,0
2022-10-08T01:29:38.479Z,0
2022-10-08T01:30:44.639Z,0
2022-10-08T01:31:50.813Z,0
2022-10-08T01:32:56.973Z,0
2022-10-08T01:34:03.154Z,0
2022-10-08T01:35:09.300Z,0
2022-10-08T01:36:14.498Z,0
2022-10-08T01:37:19.710Z,0
2022-10-08T01:38:25.850Z,0
2022-10-08T01:39:32.024Z,0
2022-10-08T01:40:38.214Z,0
2022-10-08T01:41:44.384Z,0
2022-10-08T01:42:50.548Z,0
2022-10-08T01:43:56.708Z,0
2022-10-08T01:45:02.880Z,0
2022-10-08T01:46:09.058Z,0
2022-10-08T01:47:15.301Z,0
2022-10-08T01:48:21.387Z,0
2022-10-08T01:49:27.556Z,0
2022-10-08T01:50:33.733Z,0
2022-10-08T01:51:38.919Z,0
2022-10-08T01:52:45.102Z,0
2022-10-08T01:53:51.260Z,0
2022-10-08T01:54:57.431Z,0
2022-10-08T01:56:03.668Z,0
2022-10-08T01:57:09.766Z,0
2022-10-08T01:58:15.921Z,0
2022-10-08T01:59:21.134Z,0
2022-10-08T02:00:26.318Z,0
2022-10-08T02:01:32.474Z,0
2022-10-08T02:02:38.663Z,0
2022-10-08T02:03:44.833Z,0
2022-10-08T02:04:50.993Z,0
2022-10-08T02:05:57.167Z,0
2022-10-08T02:08:09.502Z,0
2022-10-08T02:09:15.682Z,0
2022-10-08T02:10:21.834Z,0
2022-10-08T02:11:28.014Z,0
2022-10-08T02:12:34.230Z,0
2022-10-08T02:13:40.354Z,0
2022-10-08T02:14:45.559Z,0
2022-10-08T02:15:50.721Z,0
2022-10-08T02:16:56.901Z,0
2022-10-08T02:18:03.110Z,0
2022-10-08T02:19:09.239Z,0
2022-10-08T02:20:15.393Z,0
2022-10-08T02:21:21.575Z,0
2022-10-08T02:22:27.727Z,0
2022-10-08T02:23:32.929Z,0
2022-10-08T02:24:38.122Z,0
2022-10-08T02:25:43.326Z,0
2022-10-08T02:26:48.493Z,0
2022-10-08T02:27:53.692Z,0
2022-10-08T02:28:58.880Z,0
2022-10-08T02:30:05.045Z,0
2022-10-08T02:31:11.239Z,0
2022-10-08T02:32:17.386Z,0
2022-10-08T02:33:23.589Z,0
2022-10-08T02:34:29.736Z,0
2022-10-08T02:35:35.908Z,0
2022-10-08T02:37:48.242Z,0
2022-10-08T02:38:54.432Z,0
2022-10-08T02:40:00.585Z,0
2022-10-08T02:41:06.812Z,0
2022-10-08T02:42:12.923Z,0
2022-10-08T02:43:18.107Z,0
2022-10-08T02:44:24.305Z,0
2022-10-08T02:46:36.614Z,0
2022-10-08T02:47:41.802Z,0
2022-10-08T02:48:46.991Z,0
2022-10-08T02:49:53.160Z,0
2022-10-08T02:50:58.354Z,0
2022-10-08T02:52:03.555Z,0
2022-10-08T02:53:09.746Z,0
2022-10-08T02:54:15.884Z,0
2022-10-08T02:55:22.083Z,0
2022-10-08T02:56:28.216Z,0
2022-10-08T02:57:34.397Z,0
2022-10-08T02:58:40.595Z,0
2022-10-08T02:59:46.741Z,0
2022-10-08T03:00:52.901Z,0
2022-10-08T03:01:59.077Z,0
2022-10-08T03:03:04.299Z,0
2022-10-08T03:04:09.450Z,0
2022-10-08T03:05:15.636Z,0
2022-10-08T03:06:21.799Z,0
2022-10-08T03:07:27.968Z,0
2022-10-08T03:08:34.134Z,0
2022-10-08T03:09:40.302Z,0
2022-10-08T03:10:46.476Z,0
2022-10-08T03:11:52.645Z,0
2022-10-08T03:12:58.806Z,0
2022-10-08T03:14:04.982Z,0
2022-10-08T03:15:11.157Z,0
2022-10-08T03:16:17.329Z,0
2022-10-08T03:17:23.491Z,0
2022-10-08T03:18:28.673Z,0
2022-10-08T03:19:34.853Z,0
2022-10-08T03:21:47.174Z,0
2022-10-08T03:22:53.350Z,0
2022-10-08T03:23:59.533Z,0
2022-10-08T03:25:05.763Z,0
2022-10-08T03:26:11.870Z,0
2022-10-08T03:27:17.060Z,0
2022-10-08T03:28:22.245Z,0
2022-10-08T03:29:27.446Z,0
2022-10-08T03:30:32.619Z,0
2022-10-08T03:31:38.800Z,0
2022-10-08T03:32:44.983Z,0
2022-10-08T03:33:51.129Z,0
2022-10-08T03:34:57.298Z,0
2022-10-08T03:36:03.470Z,0
2022-10-08T03:37:09.648Z,0
2022-10-08T03:38:15.813Z,0
2022-10-08T03:39:21.990Z,0
2022-10-08T03:40:28.155Z,0
2022-10-08T03:41:34.330Z,0
2022-10-08T03:42:40.628Z,0
2022-10-08T03:43:46.652Z,0
2022-10-08T03:44:51.846Z,0
2022-10-08T03:45:58.013Z,0
2022-10-08T03:47:04.183Z,0
2022-10-08T03:49:16.523Z,0
2022-10-08T03:50:22.728Z,0
2022-10-08T03:51:28.870Z,0
2022-10-08T03:52:35.048Z,0
2022-10-08T03:53:40.260Z,0
2022-10-08T03:54:45.436Z,0
2022-10-08T03:55:50.618Z,0
2022-10-08T03:56:55.805Z,0
2022-10-08T03:58:01.971Z,0
2022-10-08T03:59:08.147Z,0
2022-10-08T04:00:14.310Z,0
2022-10-08T04:01:20.475Z,0
2022-10-08T04:02:26.663Z,0
2022-10-08T04:03:32.842Z,0
2022-10-08T04:04:38.993Z,0
2022-10-08T04:05:45.154Z,0
2022-10-08T04:06:51.314Z,0
2022-10-08T04:07:57.500Z,0
2022-10-08T04:09:03.751Z,0
2022-10-08T04:10:09.848Z,0
2022-10-08T04:11:15.009Z,0
2022-10-08T04:12:21.181Z,0
2022-10-08T04:13:27.368Z,0
2022-10-08T04:14:33.530Z,0
2022-10-08T04:15:39.702Z,0
2022-10-08T04:16:45.872Z,0
2022-10-08T04:17:52.028Z,0
2022-10-08T04:18:57.317Z,0
2022-10-08T04:20:02.414Z,0
2022-10-08T04:21:08.586Z,0
2022-10-08T04:22:14.795Z,0
2022-10-08T04:23:20.919Z,0
2022-10-08T04:24:27.127Z,0
2022-10-08T04:25:33.270Z,0
2022-10-08T04:26:39.435Z,0
2022-10-08T04:27:45.608Z,0
2022-10-08T04:28:51.779Z,0
2022-10-08T04:29:57.965Z,0
2022-10-08T04:31:04.127Z,0
2022-10-08T04:32:10.299Z,0
2022-10-08T04:33:16.505Z,0
2022-10-08T04:34:21.668Z,0
2022-10-08T04:35:27.806Z,0
2022-10-08T04:36:33.992Z,0
2022-10-08T04:37:40.146Z,0
2022-10-08T04:38:46.332Z,0
2022-10-08T04:39:52.497Z,0
2022-10-08T04:40:58.673Z,0
2022-10-08T04:42:03.842Z,0
2022-10-08T04:43:09.044Z,0
2022-10-08T04:44:15.211Z,0
2022-10-08T04:46:27.554Z,0
2022-10-08T04:47:33.710Z,0
2022-10-08T04:48:39.874Z,0
2022-10-08T04:49:46.057Z,0
2022-10-08T04:50:52.228Z,0
2022-10-08T04:51:58.399Z,0
2022-10-08T04:53:04.572Z,0
2022-10-08T04:54:10.739Z,0
2022-10-08T04:55:16.973Z,0
2022-10-08T04:56:23.158Z,0
2022-10-08T04:57:28.271Z,0
2022-10-08T04:58:34.432Z,0
2022-10-08T04:59:40.600Z,0
2022-10-08T05:00:46.770Z,0
2022-10-08T05:01:52.941Z,0
2022-10-08T05:02:59.100Z,0
2022-10-08T05:04:05.294Z,0
2022-10-08T05:05:11.452Z,0
2022-10-08T05:06:16.645Z,0
2022-10-08T05:07:21.842Z,0
2022-10-08T05:08:27.041Z,0
2022-10-08T05:09:32.218Z,4
2022-10-08T05:10:37.400Z,0
2022-10-08T05:11:42.591Z,0
2022-10-08T05:12:48.766Z,0
2022-10-08T05:13:53.968Z,4
2022-10-08T05:14:59.137Z,4
2022-10-08T05:16:05.318Z,8
2022-10-08T05:17:11.484Z,8
2022-10-08T05:18:17.656Z,12
2022-10-08T05:19:23.826Z,12
2022-10-08T05:20:30.005Z,16
2022-10-08T05:21:36.159Z,24
2022-10-08T05:22:42.413Z,32
2022-10-08T05:23:48.517Z,28
2022-10-08T05:24:54.660Z,24
2022-10-08T05:26:00.833Z,24
2022-10-08T05:27:07.030Z,48
2022-10-08T05:28:13.172Z,64
2022-10-08T05:29:18.413Z,48
2022-10-08T05:30:24.610Z,56
2022-10-08T05:31:30.699Z,76
2022-10-08T05:32:36.945Z,60
2022-10-08T05:33:43.133Z,44
2022-10-08T05:34:49.288Z,80
2022-10-08T05:35:55.394Z,116
2022-10-08T05:37:00.621Z,80
2022-10-08T05:38:05.767Z,60
2022-10-08T05:39:11.946Z,116
2022-10-08T05:40:18.107Z,112
2022-10-08T05:41:24.265Z,80
2022-10-08T05:42:30.484Z,80
2022-10-08T05:43:36.617Z,84
2022-10-08T05:44:42.797Z,92
2022-10-08T05:45:48.992Z,116
2022-10-08T05:46:55.130Z,104
2022-10-08T05:48:01.282Z,168
2022-10-08T05:49:07.463Z,332
2022-10-08T05:50:13.630Z,312
2022-10-08T05:51:19.803Z,180
2022-10-08T05:52:24.982Z,196
2022-10-08T05:53:31.159Z,220
2022-10-08T05:54:37.332Z,208
2022-10-08T05:55:43.509Z,260
2022-10-08T05:56:48.694Z,336
2022-10-08T05:57:54.905Z,316
2022-10-08T05:59:01.017Z,224
2022-10-08T06:00:06.234Z,228
2022-10-08T06:01:11.415Z,220
2022-10-08T06:02:16.690Z,220
2022-10-08T06:03:21.812Z,204
2022-10-08T06:04:27.953Z,216
2022-10-08T06:05:34.153Z,244
2022-10-08T06:06:40.364Z,260
2022-10-08T06:07:46.540Z,244
2022-10-08T06:08:52.635Z,252
2022-10-08T06:11:04.976Z,336
2022-10-08T06:12:11.154Z,320
2022-10-08T06:13:17.314Z,324
2022-10-08T06:14:23.524Z,364
2022-10-08T06:15:29.680Z,364
2022-10-08T06:16:35.844Z,352
2022-10-08T06:17:41.033Z,496
2022-10-08T06:18:47.188Z,480
2022-10-08T06:19:53.384Z,340
2022-10-08T06:20:59.525Z,284
2022-10-08T06:22:05.700Z,292
2022-10-08T06:23:11.855Z,296
2022-10-08T06:24:18.109Z,312
2022-10-08T06:25:24.198Z,476
2022-10-08T06:26:29.409Z,460
2022-10-08T06:27:34.584Z,384
2022-10-08T06:28:40.773Z,312
2022-10-08T06:29:46.929Z,452
2022-10-08T06:30:53.088Z,640
2022-10-08T06:31:59.304Z,772
2022-10-08T06:33:05.473Z,980
2022-10-08T06:34:11.605Z,852
2022-10-08T06:35:17.825Z,592
2022-10-08T06:36:23.995Z,516
2022-10-08T06:37:30.117Z,596
2022-10-08T06:38:36.285Z,1040
2022-10-08T06:39:42.437Z,1176
2022-10-08T06:40:48.685Z,1044
2022-10-08T06:41:53.797Z,1464
2022-10-08T06:42:59.969Z,1644
2022-10-08T06:44:06.148Z,1604
2022-10-08T06:45:12.295Z,1600
2022-10-08T06:46:18.504Z,1700
2022-10-08T06:47:24.668Z,1636
2022-10-08T06:48:30.810Z,1636
2022-10-08T06:49:36.021Z,1620
2022-10-08T06:50:41.227Z,1448
2022-10-08T06:51:46.441Z,1152
2022-10-08T06:52:51.696Z,1116
2022-10-08T06:53:57.793Z,1316
2022-10-08T06:55:03.941Z,1548
2022-10-08T06:56:10.098Z,1436
2022-10-08T06:57:16.254Z,1000
2022-10-08T06:58:22.431Z,804
2022-10-08T06:59:28.612Z,992
2022-10-08T07:00:34.766Z,1168
2022-10-08T07:01:40.949Z,1448
2022-10-08T07:02:47.113Z,1764
2022-10-08T07:03:53.275Z,2324
2022-10-08T07:04:59.441Z,2792
2022-10-08T07:06:05.680Z,3004
2022-10-08T07:07:10.810Z,3388
2022-10-08T07:08:16.988Z,3452
2022-10-08T07:09:23.154Z,3000
2022-10-08T07:10:29.322Z,2556
2022-10-08T07:11:35.488Z,2488
2022-10-08T07:12:41.645Z,2228
2022-10-08T07:13:47.814Z,2156
2022-10-08T07:14:53.031Z,2224
2022-10-08T07:15:58.197Z,2344
2022-10-08T07:17:04.416Z,2292
2022-10-08T07:18:10.558Z,2668
2022-10-08T07:19:16.713Z,2668
2022-10-08T07:20:22.873Z,2936
2022-10-08T07:21:29.056Z,3288
2022-10-08T07:22:35.304Z,3852
2022-10-08T07:23:41.430Z,4248
2022-10-08T07:24:47.562Z,4916
2022-10-08T07:25:53.724Z,4436
2022-10-08T07:26:59.905Z,5208
2022-10-08T07:28:06.050Z,5716
2022-10-08T07:29:12.235Z,5816
2022-10-08T07:30:17.458Z,6048
2022-10-08T07:31:23.599Z,5648
2022-10-08T07:32:29.774Z,5148
2022-10-08T07:33:35.938Z,6132
2022-10-08T07:34:42.101Z,7388
2022-10-08T07:35:48.270Z,8164
2022-10-08T07:36:54.428Z,8992
2022-10-08T07:37:59.698Z,8272
2022-10-08T07:39:04.838Z,7952
2022-10-08T07:40:10.005Z,7484
2022-10-08T07:41:15.225Z,6208
2022-10-08T07:42:21.381Z,6016
2022-10-08T07:43:27.538Z,4968
2022-10-08T07:44:33.697Z,3996
2022-10-08T07:45:39.871Z,3716
2022-10-08T07:46:46.041Z,3740
2022-10-08T07:47:52.219Z,3416
2022-10-08T07:48:58.379Z,2828
2022-10-08T07:50:04.541Z,2536
2022-10-08T07:51:10.720Z,2452
2022-10-08T07:52:16.886Z,2204
2022-10-08T07:53:23.062Z,1896
2022-10-08T07:54:29.250Z,1816
2022-10-08T07:55:34.423Z,1648
2022-10-08T07:56:40.585Z,1724
2022-10-08T07:57:46.742Z,1884
2022-10-08T07:58:52.967Z,2008
2022-10-08T07:59:59.086Z,2044
2022-10-08T08:01:05.271Z,2300
2022-10-08T08:02:11.431Z,2932
2022-10-08T08:03:16.675Z,3424
2022-10-08T08:04:21.861Z,3200
2022-10-08T08:05:27.046Z,2756
2022-10-08T08:06:32.194Z,2768
2022-10-08T08:07:38.352Z,3768
2022-10-08T08:08:44.605Z,4840
2022-10-08T08:09:50.699Z,5960
2022-10-08T08:10:56.855Z,5712
2022-10-08T08:12:03.026Z,5184
2022-10-08T08:13:09.248Z,5492
2022-10-08T08:14:15.356Z,6020
2022-10-08T08:15:21.542Z,6684
2022-10-08T08:16:27.721Z,6800
2022-10-08T08:17:33.922Z,6352
2022-10-08T08:18:40.053Z,5192
2022-10-08T08:19:46.224Z,5124
2022-10-08T08:20:51.392Z,5752
2022-10-08T08:21:57.633Z,5808
2022-10-08T08:23:03.824Z,6296
2022-10-08T08:24:09.903Z,7900
2022-10-08T08:25:16.154Z,9324
2022-10-08T08:26:22.264Z,10220
2022-10-08T08:27:28.421Z,10544
2022-10-08T08:28:33.609Z,12280
2022-10-08T08:29:38.872Z,12036
2022-10-08T08:30:44.987Z,9660
2022-10-08T08:31:51.153Z,8664
2022-10-08T08:32:57.366Z,9316
2022-10-08T08:34:03.515Z,9704
2022-10-08T08:35:09.651Z,8336
2022-10-08T08:36:15.830Z,5636
2022-10-08T08:37:22.080Z,4660
2022-10-08T08:38:28.180Z,4808
2022-10-08T08:39:34.343Z,5004
2022-10-08T08:40:40.489Z,4380
2022-10-08T08:41:46.650Z,4260
2022-10-08T08:42:52.838Z,4868
2022-10-08T08:43:58.025Z,6276
2022-10-08T08:45:04.250Z,7964
2022-10-08T08:46:10.359Z,8528
2022-10-08T08:47:16.530Z,7616
2022-10-08T08:48:22.690Z,5692
2022-10-08T08:49:28.891Z,5556
2022-10-08T08:50:35.110Z,6056
2022-10-08T08:51:40.226Z,5440
2022-10-08T08:52:45.494Z,5484
2022-10-08T08:53:51.633Z,7868
2022-10-08T08:54:57.827Z,10456
2022-10-08T08:56:03.942Z,11952
2022-10-08T08:57:10.082Z,12336
2022-10-08T08:58:16.294Z,11712
2022-10-08T08:59:22.450Z,10292
2022-10-08T09:00:28.596Z,8248
2022-10-08T09:01:34.779Z,6348
2022-10-08T09:02:41.031Z,6388
2022-10-08T09:04:53.276Z,9404
2022-10-08T09:05:59.453Z,9096
2022-10-08T09:07:04.635Z,6216
2022-10-08T09:08:10.796Z,4456
2022-10-08T09:09:16.989Z,5468
2022-10-08T09:10:23.136Z,7708
2022-10-08T09:11:29.310Z,8896
2022-10-08T09:12:35.465Z,8364
2022-10-08T09:13:41.641Z,8072
2022-10-08T09:14:47.864Z,7912
2022-10-08T09:15:53.012Z,9000
2022-10-08T09:16:58.196Z,11984
2022-10-08T09:18:03.396Z,11712
2022-10-08T09:19:08.607Z,9768
2022-10-08T09:20:13.789Z,8960
2022-10-08T09:21:18.969Z,10956
2022-10-08T09:22:25.131Z,15996
2022-10-08T09:23:31.291Z,20192
2022-10-08T09:24:37.465Z,20992
2022-10-08T09:25:43.635Z,22720
2022-10-08T09:26:49.843Z,15260
2022-10-08T09:27:55.978Z,11676
2022-10-08T09:29:02.141Z,9412
2022-10-08T09:30:08.305Z,8296
2022-10-08T09:31:14.487Z,8768
2022-10-08T09:32:20.650Z,11352
2022-10-08T09:33:26.821Z,18240
2022-10-08T09:34:33.000Z,17984
2022-10-08T09:35:38.176Z,15668
2022-10-08T09:36:44.366Z,14096
2022-10-08T09:37:49.546Z,19328
2022-10-08T09:38:55.702Z,38528
2022-10-08T09:40:01.871Z,33344
2022-10-08T09:41:08.069Z,52000
2022-10-08T09:42:14.235Z,33056
2022-10-08T09:43:19.432Z,17984
2022-10-08T09:44:24.627Z,16928
2022-10-08T09:45:29.782Z,26848
2022-10-08T09:46:35.061Z,21792
2022-10-08T09:47:41.150Z,39552
2022-10-08T09:48:47.317Z,12108
2022-10-08T09:49:53.511Z,11148
2022-10-08T09:50:59.647Z,12384
2022-10-08T09:52:05.893Z,12980
2022-10-08T09:53:11.981Z,13444
2022-10-08T09:54:18.171Z,13220
2022-10-08T09:55:24.345Z,12368
2022-10-08T09:56:30.507Z,12572
2022-10-08T09:57:36.709Z,12468
2022-10-08T09:58:42.833Z,14596
2022-10-08T09:59:49.007Z,17152
2022-10-08T10:00:54.241Z,20832
2022-10-08T10:02:00.380Z,33984
2022-10-08T10:03:06.534Z,41568
2022-10-08T10:04:12.694Z,16144
2022-10-08T10:05:18.904Z,12332
2022-10-08T10:06:25.045Z,12108
2022-10-08T10:07:31.226Z,13128
2022-10-08T10:08:36.414Z,13588
2022-10-08T10:09:41.596Z,13652
2022-10-08T10:10:46.850Z,13028
2022-10-08T10:11:51.979Z,13564
2022-10-08T10:12:58.300Z,14864
2022-10-08T10:14:04.393Z,15848
2022-10-08T10:15:10.535Z,17152
2022-10-08T10:16:16.666Z,18272
2022-10-08T10:17:22.848Z,17920
2022-10-08T10:18:28.981Z,16424
2022-10-08T10:19:35.162Z,15036
2022-10-08T10:20:41.337Z,14652
2022-10-08T10:21:47.495Z,15256
2022-10-08T10:22:53.767Z,17044
2022-10-08T10:25:06.054Z,17760
2022-10-08T10:26:11.198Z,17332
2022-10-08T10:27:17.356Z,15472
2022-10-08T10:28:23.578Z,13848
2022-10-08T10:29:29.765Z,13608
2022-10-08T10:30:35.856Z,13124
2022-10-08T10:31:42.048Z,12572
2022-10-08T10:32:48.287Z,11852
2022-10-08T10:33:54.382Z,12804
2022-10-08T10:34:59.599Z,13180
2022-10-08T10:36:04.777Z,13164
2022-10-08T10:37:10.923Z,15016
2022-10-08T10:38:17.091Z,21376
2022-10-08T10:39:23.265Z,22944
2022-10-08T10:40:29.431Z,24096
2022-10-08T10:41:35.720Z,24992
2022-10-08T10:42:41.771Z,29792
2022-10-08T10:43:47.949Z,29344
2022-10-08T10:44:54.115Z,44032
2022-10-08T10:46:00.285Z,29088
2022-10-08T10:47:06.448Z,27680
2022-10-08T10:48:12.611Z,26688
2022-10-08T10:49:18.788Z,6720
2022-10-08T10:50:23.975Z,33152
2022-10-08T10:51:30.141Z,23040
2022-10-08T10:52:36.387Z,25728
2022-10-08T10:53:42.489Z,21888
2022-10-08T10:54:48.678Z,18112
2022-10-08T10:55:54.829Z,15120
2022-10-08T10:57:00.979Z,15492
2022-10-08T10:58:06.202Z,15692
2022-10-08T10:59:11.377Z,13540
2022-10-08T11:00:17.534Z,13464
2022-10-08T11:01:23.707Z,15364
2022-10-08T11:02:29.869Z,15048
2022-10-08T11:03:36.104Z,12640
2022-10-08T11:04:42.250Z,11748
2022-10-08T11:05:48.428Z,14808
2022-10-08T11:06:54.558Z,13192
2022-10-08T11:08:00.712Z,16088
2022-10-08T11:09:06.921Z,20384
2022-10-08T11:10:13.100Z,22496
2022-10-08T11:11:19.240Z,16876
2022-10-08T11:12:25.393Z,17568
2022-10-08T11:13:30.608Z,20288
2022-10-08T11:14:36.762Z,29600
2022-10-08T11:15:42.919Z,57504
2022-10-08T11:16:49.096Z,26656
2022-10-08T11:17:55.256Z,21088
2022-10-08T11:19:01.495Z,55584
2022-10-08T11:20:07.588Z,18016
2022-10-08T11:21:12.823Z,18368
2022-10-08T11:22:17.992Z,14520
2022-10-08T11:23:23.286Z,16676
2022-10-08T11:24:28.377Z,19104
2022-10-08T11:25:34.525Z,18432
2022-10-08T11:26:40.709Z,17024
2022-10-08T11:27:46.869Z,17504
2022-10-08T11:28:53.056Z,17728
2022-10-08T11:29:59.211Z,19680
2022-10-08T11:31:05.369Z,16448
2022-10-08T11:32:11.540Z,15296
2022-10-08T11:33:17.719Z,16068
2022-10-08T11:34:23.908Z,54048
2022-10-08T11:35:30.062Z,43232
2022-10-08T11:36:36.252Z,28672
2022-10-08T11:37:42.447Z,35968
2022-10-08T11:38:47.605Z,23584
2022-10-08T11:39:53.749Z,28896
2022-10-08T11:40:59.939Z,28096
2022-10-08T11:42:06.202Z,29440
2022-10-08T11:43:12.260Z,57664
2022-10-08T11:44:18.433Z,20448
2022-10-08T11:45:24.602Z,20128
2022-10-08T11:46:29.793Z,21344
2022-10-08T11:47:34.995Z,22656
2022-10-08T11:48:40.188Z,24608
2022-10-08T11:49:45.361Z,28992
2022-10-08T11:50:51.534Z,57152
2022-10-08T11:51:57.709Z,45728
2022-10-08T11:53:03.871Z,2048
2022-10-08T11:54:10.045Z,28768
2022-10-08T11:55:16.212Z,35136
2022-10-08T11:56:22.372Z,35936
2022-10-08T11:57:28.535Z,37824
2022-10-08T11:58:34.730Z,33280
2022-10-08T11:59:40.909Z,24128
2022-10-08T12:00:47.055Z,24032
2022-10-08T12:01:53.238Z,53760
2022-10-08T12:02:59.391Z,4256
2022-10-08T12:04:04.574Z,3840
2022-10-08T12:05:10.754Z,34784
2022-10-08T12:06:16.933Z,27680
2022-10-08T12:07:23.140Z,37152
2022-10-08T12:08:29.246Z,34656
2022-10-08T12:09:35.473Z,30432
2022-10-08T12:10:41.585Z,29568
2022-10-08T12:11:46.784Z,27200
2022-10-08T12:12:52.106Z,27104
2022-10-08T12:13:58.211Z,26048
2022-10-08T12:15:04.339Z,27648
2022-10-08T12:16:10.491Z,54944
2022-10-08T12:17:16.664Z,47136
2022-10-08T12:18:22.829Z,28832
2022-10-08T12:19:29.003Z,23296
2022-10-08T12:20:35.161Z,52000
2022-10-08T12:21:41.344Z,51264
2022-10-08T12:22:47.645Z,45568
2022-10-08T12:23:53.698Z,31360
2022-10-08T12:25:00.157Z,39296
2022-10-08T12:26:06.033Z,47104
2022-10-08T12:27:11.206Z,47360
2022-10-08T12:28:17.388Z,19136
2022-10-08T12:29:23.634Z,18400
2022-10-08T12:30:29.717Z,21824
2022-10-08T12:31:35.866Z,18464
2022-10-08T12:32:42.042Z,17888
2022-10-08T12:33:48.216Z,16724
2022-10-08T12:34:54.412Z,19872
2022-10-08T12:36:00.564Z,37696
2022-10-08T12:37:06.761Z,27232
2022-10-08T12:38:12.965Z,31904
2022-10-08T12:39:19.077Z,41472
2022-10-08T12:40:25.232Z,24672
2022-10-08T12:41:30.423Z,24640
2022-10-08T12:42:36.631Z,30528
2022-10-08T12:43:42.771Z,18560
2022-10-08T12:44:48.939Z,16564
2022-10-08T12:45:55.102Z,16272
2022-10-08T12:47:01.259Z,15992
2022-10-08T12:48:07.425Z,15312
2022-10-08T12:49:13.601Z,15780
2022-10-08T12:50:19.766Z,15904
2022-10-08T12:51:25.957Z,15476
2022-10-08T12:52:32.106Z,14936
2022-10-08T12:53:38.289Z,22688
2022-10-08T12:54:44.458Z,14080
2022-10-08T12:55:49.630Z,15168
2022-10-08T12:56:55.805Z,29792
2022-10-08T12:58:01.961Z,30304
2022-10-08T12:59:08.145Z,27136
2022-10-08T13:00:14.334Z,16012
2022-10-08T13:01:20.492Z,24672
2022-10-08T13:02:26.647Z,27232
2022-10-08T13:03:32.900Z,28160
2022-10-08T13:04:38.979Z,29792
2022-10-08T13:05:45.151Z,31136
2022-10-08T13:06:51.383Z,31360
2022-10-08T13:07:57.512Z,33824
2022-10-08T13:09:03.697Z,42240
2022-10-08T13:10:08.851Z,43584
2022-10-08T13:11:15.022Z,38016
2022-10-08T13:12:21.189Z,31968
2022-10-08T13:13:27.366Z,30368
2022-10-08T13:14:33.522Z,29024
2022-10-08T13:15:39.733Z,21856
2022-10-08T13:16:45.866Z,22272
2022-10-08T13:17:52.023Z,23840
2022-10-08T13:18:57.283Z,21472
2022-10-08T13:20:03.390Z,19392
2022-10-08T13:21:09.563Z,18752
2022-10-08T13:22:15.740Z,18528
2022-10-08T13:23:21.896Z,18816
2022-10-08T13:24:28.082Z,18272
2022-10-08T13:25:34.251Z,15908
2022-10-08T13:26:40.404Z,16832
2022-10-08T13:27:46.584Z,13840
2022-10-08T13:28:52.740Z,18176
2022-10-08T13:29:58.949Z,19136
2022-10-08T13:31:05.091Z,18592
2022-10-08T13:32:11.251Z,14156
2022-10-08T13:33:16.443Z,16544
2022-10-08T13:34:22.678Z,14408
2022-10-08T13:35:28.884Z,16172
2022-10-08T13:36:34.965Z,13448
2022-10-08T13:37:41.214Z,13532
2022-10-08T13:38:47.322Z,13456
2022-10-08T13:39:53.460Z,13684
2022-10-08T13:40:59.621Z,14276
2022-10-08T13:42:05.804Z,14984
2022-10-08T13:43:11.968Z,16776
2022-10-08T13:44:18.150Z,21248
2022-10-08T13:45:24.315Z,19488
2022-10-08T13:46:30.469Z,18688
2022-10-08T13:47:35.761Z,18400
2022-10-08T13:48:41.892Z,17128
2022-10-08T13:49:48.013Z,14924
2022-10-08T13:50:54.172Z,12292
2022-10-08T13:52:00.344Z,10548
2022-10-08T13:53:06.572Z,9728
2022-10-08T13:54:12.715Z,9188
2022-10-08T13:55:18.854Z,8652
2022-10-08T13:56:25.018Z,8328
2022-10-08T13:57:31.207Z,8836
2022-10-08T13:58:37.359Z,9952
2022-10-08T13:59:43.519Z,11556
2022-10-08T14:00:49.711Z,14616
2022-10-08T14:01:54.891Z,15840
2022-10-08T14:03:01.057Z,14392
2022-10-08T14:04:07.225Z,13052
2022-10-08T14:05:13.401Z,11964
2022-10-08T14:06:19.556Z,11088
2022-10-08T14:07:25.732Z,10820
2022-10-08T14:08:31.904Z,11744
2022-10-08T14:09:38.081Z,12664
2022-10-08T14:10:44.258Z,13296
2022-10-08T14:11:50.403Z,14508
2022-10-08T14:12:56.570Z,15284
2022-10-08T14:14:02.756Z,15652
2022-10-08T14:15:08.901Z,15532
2022-10-08T14:16:14.090Z,14524
2022-10-08T14:17:20.257Z,13444
2022-10-08T14:18:26.426Z,12504
2022-10-08T14:19:32.592Z,11760
2022-10-08T14:20:38.771Z,13576
2022-10-08T14:21:44.955Z,12020
2022-10-08T14:22:51.102Z,13032
2022-10-08T14:23:57.286Z,12292
2022-10-08T14:25:03.458Z,12580
2022-10-08T14:26:09.677Z,14064
2022-10-08T14:27:15.790Z,13904
2022-10-08T14:28:21.998Z,13200
2022-10-08T14:29:28.149Z,13264
2022-10-08T14:30:33.310Z,12208
2022-10-08T14:31:39.509Z,9264
2022-10-08T14:32:45.707Z,9528
2022-10-08T14:33:51.839Z,11424
2022-10-08T14:34:57.997Z,11008
2022-10-08T14:36:04.149Z,10228
2022-10-08T14:37:10.335Z,10136
2022-10-08T14:38:16.499Z,10848
2022-10-08T14:39:22.673Z,11020
2022-10-08T14:40:28.830Z,10460
2022-10-08T14:41:35.017Z,10900
2022-10-08T14:42:41.289Z,10132
2022-10-08T14:43:47.358Z,8184
2022-10-08T14:44:52.586Z,6616
2022-10-08T14:45:58.695Z,5828
2022-10-08T14:47:04.887Z,6088
2022-10-08T14:48:11.051Z,6672
2022-10-08T14:49:17.213Z,5920
2022-10-08T14:50:23.379Z,6004
2022-10-08T14:51:29.546Z,6684
2022-10-08T14:52:35.761Z,7428
2022-10-08T14:53:41.883Z,8272
2022-10-08T14:54:48.068Z,8876
2022-10-08T14:55:54.254Z,9292
2022-10-08T14:57:00.396Z,9160
2022-10-08T14:58:06.554Z,8920
2022-10-08T14:59:11.787Z,8608
2022-10-08T15:00:17.922Z,8824
2022-10-08T15:01:24.089Z,8832
2022-10-08T15:02:30.274Z,8632
2022-10-08T15:03:36.413Z,8240
2022-10-08T15:04:42.605Z,8320
2022-10-08T15:05:48.787Z,7940
2022-10-08T15:06:54.967Z,8188
2022-10-08T15:08:01.207Z,8364
2022-10-08T15:09:07.359Z,8364
2022-10-08T15:10:13.432Z,8608
2022-10-08T15:11:19.648Z,8632
2022-10-08T15:12:25.812Z,8252
2022-10-08T15:13:30.956Z,7872